Time;durP1;ratioP1;P1;durP2;ratioP2;P2;SDS_P1;SDS_P2;PMS_P1;PMS_P2;Temp;Humidity;BMP_temperature;BMP_pressure;BME280_temperature;BME280_humidity;BME280_pressure;Samples;Min_cycle;Max_cycle;Signal;HPM_P1;HPM_P2
2023/09/18 00:00:57;;;;;;;6.70;5.93;;;23.80;48.20;;;;;;5014326;28;20561;-84
2023/09/18 00:03:25;;;;;;;7.47;5.57;;;23.90;46.20;;;;;;5014438;28;20564;-83
2023/09/18 00:05:53;;;;;;;7.80;5.60;;;23.90;46.80;;;;;;5017329;28;20528;-83
2023/09/18 00:08:19;;;;;;;7.77;5.73;;;23.90;47.50;;;;;;5016150;28;20174;-82
2023/09/18 00:10:50;;;;;;;8.47;5.80;;;24.00;45.50;;;;;;5015163;28;20166;-81
2023/09/18 00:13:16;;;;;;;8.50;5.23;;;24.00;41.30;;;;;;5014238;28;20182;-83
2023/09/18 00:15:44;;;;;;;8.70;5.87;;;24.00;36.20;;;;;;5016841;28;20210;-83
2023/09/18 00:18:10;;;;;;;7.07;5.33;;;23.90;36.30;;;;;;5014928;28;20365;-83
2023/09/18 00:20:36;;;;;;;6.83;5.50;;;23.70;44.80;;;;;;5017610;28;20273;-83
2023/09/18 00:23:02;;;;;;;7.03;5.27;;;23.50;50.00;;;;;;5017305;28;20646;-82
2023/09/18 00:25:28;;;;;;;7.67;5.80;;;23.40;56.60;;;;;;5014551;28;20186;-82
2023/09/18 00:27:54;;;;;;;8.53;5.80;;;23.30;60.00;;;;;;5012917;28;20178;-83
2023/09/18 00:30:20;;;;;;;7.77;6.20;;;23.20;68.10;;;;;;5028247;28;20641;-83
2023/09/18 00:32:46;;;;;;;8.90;6.17;;;23.10;76.00;;;;;;5034434;28;20247;-83
2023/09/18 00:35:12;;;;;;;6.57;5.80;;;23.10;78.30;;;;;;5033812;28;20208;-82
2023/09/18 00:37:39;;;;;;;10.30;5.97;;;23.10;77.50;;;;;;5034006;28;20268;-83
2023/09/18 00:40:09;;;;;;;9.47;5.87;;;23.30;71.30;;;;;;5034100;28;20205;-82
2023/09/18 00:42:34;;;;;;;7.50;5.97;;;23.30;70.20;;;;;;5034314;28;20165;-82
2023/09/18 00:45:00;;;;;;;9.93;6.80;;;23.30;72.80;;;;;;5036656;28;20701;-83
2023/09/18 00:47:26;;;;;;;8.37;6.50;;;23.00;83.70;;;;;;5030359;28;20205;-82
2023/09/18 00:49:52;;;;;;;12.07;6.63;;;22.80;91.10;;;;;;5014858;28;20174;-82
2023/09/18 00:52:20;;;;;;;8.37;5.83;;;22.80;92.20;;;;;;5014465;28;20661;-82
2023/09/18 00:54:47;;;;;;;8.77;6.23;;;22.60;93.30;;;;;;5012879;28;20209;-82
2023/09/18 00:57:13;;;;;;;9.07;5.97;;;22.50;94.20;;;;;;5014224;28;20243;-81
2023/09/18 00:59:39;;;;;;;8.20;5.63;;;22.30;99.00;;;;;;5013220;28;20628;-82
2023/09/18 01:02:05;;;;;;;9.77;6.23;;;22.10;99.90;;;;;;5014167;28;20670;-81
2023/09/18 01:04:33;;;;;;;9.77;6.13;;;22.10;99.90;;;;;;5016551;28;20173;-81
2023/09/18 01:07:03;;;;;;;8.03;6.40;;;22.10;99.90;;;;;;5014851;28;20179;-81
2023/09/18 01:09:33;;;;;;;10.40;6.67;;;22.00;99.90;;;;;;5014258;28;20555;-82
2023/09/18 01:12:02;;;;;;;9.17;7.33;;;22.00;99.90;;;;;;5015294;28;20528;-82
2023/09/18 01:14:51;;;;;;;8.53;6.60;;;21.90;99.90;;;;;;5014656;28;20195;-82
2023/09/18 01:17:19;;;;;;;9.47;6.40;;;21.80;99.90;;;;;;5015249;28;20182;-82
2023/09/18 01:19:46;;;;;;;11.33;7.17;;;21.80;99.90;;;;;;5012970;28;20266;-83
2023/09/18 01:22:13;;;;;;;9.20;7.37;;;21.80;99.90;;;;;;5013088;28;20193;-81
2023/09/18 01:24:41;;;;;;;11.33;6.93;;;21.80;99.90;;;;;;5012053;28;20525;-81
2023/09/18 01:27:13;;;;;;;8.53;6.50;;;21.70;99.90;;;;;;5013785;28;20165;-82
2023/09/18 01:29:39;;;;;;;8.57;6.00;;;21.70;99.90;;;;;;5013116;28;20635;-82
2023/09/18 01:32:05;;;;;;;7.13;6.03;;;21.70;99.90;;;;;;5012604;28;20551;-82
2023/09/18 01:34:37;;;;;;;8.33;6.50;;;21.80;99.90;;;;;;5010908;28;20324;-82
2023/09/18 01:37:05;;;;;;;8.87;6.03;;;21.80;99.90;;;;;;5011480;28;20251;-82
2023/09/18 01:39:32;;;;;;;8.57;6.27;;;21.80;99.90;;;;;;5012949;28;20193;-82
2023/09/18 01:42:05;;;;;;;6.73;5.47;;;21.80;99.90;;;;;;5011496;28;20201;-82
2023/09/18 01:44:35;;;;;;;6.80;5.90;;;21.70;99.90;;;;;;5011662;28;20227;-82
2023/09/18 01:47:03;;;;;;;7.80;6.37;;;21.70;99.90;;;;;;5012245;28;20192;-82
2023/09/18 01:49:39;;;;;;;7.30;6.13;;;21.80;99.90;;;;;;5011608;28;20647;-82
2023/09/18 01:52:07;;;;;;;8.53;6.20;;;22.00;99.90;;;;;;5012468;28;20184;-80
2023/09/18 01:54:34;;;;;;;7.30;6.20;;;22.10;99.90;;;;;;5012916;28;20631;-82
2023/09/18 01:57:00;;;;;;;9.23;6.53;;;22.20;99.90;;;;;;5013203;28;20174;-82
2023/09/18 01:59:26;;;;;;;7.17;6.07;;;22.40;99.90;;;;;;5013042;28;20170;-82
2023/09/18 02:01:53;;;;;;;9.70;6.50;;;22.50;99.90;;;;;;5012516;28;20520;-81
2023/09/18 02:04:19;;;;;;;6.83;6.03;;;22.60;98.60;;;;;;5013886;28;20257;-81
2023/09/18 02:06:48;;;;;;;8.23;5.60;;;22.60;95.80;;;;;;5014818;28;20174;-80
2023/09/18 02:09:14;;;;;;;6.73;5.47;;;22.40;95.70;;;;;;5016366;28;20256;-81
2023/09/18 02:11:42;;;;;;;8.20;5.57;;;22.30;95.90;;;;;;5016538;28;20166;-81
2023/09/18 02:14:09;;;;;;;6.37;4.97;;;22.20;96.50;;;;;;5012992;28;20206;-82
2023/09/18 02:16:43;;;;;;;6.43;5.80;;;22.10;98.50;;;;;;5014026;28;20257;-82
2023/09/18 02:19:09;;;;;;;8.73;5.50;;;22.10;99.20;;;;;;5015721;28;20174;-81
2023/09/18 02:21:36;;;;;;;6.57;5.50;;;22.00;99.90;;;;;;5013076;28;20186;-81
2023/09/18 02:24:03;;;;;;;9.40;5.60;;;21.90;99.90;;;;;;5016027;28;20208;-81
2023/09/18 02:26:29;;;;;;;8.63;6.10;;;22.10;99.90;;;;;;5018116;28;20177;-82
2023/09/18 02:28:57;;;;;;;9.50;6.13;;;22.20;99.90;;;;;;5019356;28;20171;-81
2023/09/18 02:31:24;;;;;;;10.10;5.93;;;22.40;98.50;;;;;;5018291;28;20190;-83
2023/09/18 02:33:50;;;;;;;8.27;5.60;;;22.30;95.40;;;;;;5017181;28;20189;-81
2023/09/18 02:36:16;;;;;;;8.37;5.80;;;22.30;95.10;;;;;;5017386;28;20218;-82
2023/09/18 02:38:42;;;;;;;7.57;5.20;;;22.40;94.00;;;;;;5018381;28;20190;-82
2023/09/18 02:41:08;;;;;;;5.73;4.97;;;22.40;92.60;;;;;;5018879;28;20181;-82
2023/09/18 02:43:37;;;;;;;6.83;5.00;;;22.30;92.30;;;;;;5023040;28;20170;-82
2023/09/18 02:46:05;;;;;;;5.20;4.50;;;22.10;93.10;;;;;;5039276;28;20170;-80
2023/09/18 02:48:31;;;;;;;7.13;4.77;;;22.00;94.60;;;;;;5026877;28;20205;-82
2023/09/18 02:50:58;;;;;;;7.17;4.30;;;22.10;92.00;;;;;;5020715;28;20633;-81
2023/09/18 02:53:29;;;;;;;6.80;4.57;;;22.00;91.50;;;;;;5021897;28;20184;-83
2023/09/18 02:55:58;;;;;;;5.30;4.03;;;21.80;94.00;;;;;;5017287;28;20249;-81
2023/09/18 02:58:30;;;;;;;5.57;4.03;;;21.60;96.30;;;;;;5016435;28;20559;-81
2023/09/18 03:01:02;;;;;;;5.20;4.30;;;21.60;98.00;;;;;;5016668;28;20272;-81
2023/09/18 03:03:28;;;;;;;5.27;3.77;;;21.60;98.60;;;;;;5019308;28;20540;-81
2023/09/18 03:06:04;;;;;;;5.17;3.77;;;21.50;97.60;;;;;;5018380;28;20186;-81
2023/09/18 03:08:31;;;;;;;6.33;3.97;;;21.50;97.50;;;;;;5030337;28;20204;-81
2023/09/18 03:10:57;;;;;;;7.27;4.00;;;21.40;97.00;;;;;;5038419;28;20160;-80
2023/09/18 03:13:23;;;;;;;5.93;3.43;;;21.40;97.40;;;;;;5022221;28;20211;-81
2023/09/18 03:15:49;;;;;;;6.23;3.83;;;21.50;95.70;;;;;;5018804;28;20216;-81
2023/09/18 03:18:21;;;;;;;4.93;3.50;;;21.50;94.30;;;;;;5030288;28;20179;-81
2023/09/18 03:20:48;;;;;;;5.47;3.47;;;21.60;93.10;;;;;;5038707;28;20173;-83
2023/09/18 03:23:14;;;;;;;5.63;3.80;;;21.50;93.30;;;;;;5037888;28;20190;-80
2023/09/18 03:25:40;;;;;;;5.67;3.87;;;21.50;93.80;;;;;;5037318;28;20547;-81
2023/09/18 03:28:06;;;;;;;5.17;3.43;;;21.60;93.30;;;;;;5036246;28;20173;-82
2023/09/18 03:30:31;;;;;;;4.87;3.40;;;21.60;92.50;;;;;;5036647;28;20258;-81
2023/09/18 03:32:57;;;;;;;4.70;3.13;;;21.50;91.10;;;;;;5038281;28;20719;-81
2023/09/18 03:35:23;;;;;;;4.67;2.70;;;21.50;91.20;;;;;;5034985;28;20256;-81
2023/09/18 03:37:56;;;;;;;3.73;2.63;;;21.50;89.30;;;;;;5035705;28;20178;-82
2023/09/18 03:40:22;;;;;;;5.13;2.53;;;21.40;86.10;;;;;;5036935;28;20196;-79
2023/09/18 03:42:48;;;;;;;4.03;2.10;;;21.40;84.20;;;;;;5036863;28;20168;-80
2023/09/18 03:45:15;;;;;;;5.17;2.63;;;21.40;85.60;;;;;;5035804;28;20659;-82
2023/09/18 03:47:42;;;;;;;5.27;2.77;;;21.40;86.20;;;;;;5036717;28;20576;-81
2023/09/18 03:50:09;;;;;;;4.53;2.87;;;21.30;85.80;;;;;;5036838;28;20201;-81
2023/09/18 03:52:35;;;;;;;7.67;4.00;;;21.30;86.50;;;;;;5034150;28;20179;-82
2023/09/18 03:55:02;;;;;;;7.33;3.30;;;21.30;86.30;;;;;;5033869;28;20207;-81
2023/09/18 03:57:28;;;;;;;6.83;3.77;;;21.40;83.80;;;;;;5036050;28;20167;-79
2023/09/18 03:59:54;;;;;;;6.63;3.80;;;21.40;81.10;;;;;;5035428;28;20175;-82
2023/09/18 04:02:23;;;;;;;7.57;4.23;;;21.40;81.70;;;;;;5036715;28;20179;-81
2023/09/18 04:04:49;;;;;;;7.07;3.90;;;21.30;82.50;;;;;;5038962;28;20173;-80
2023/09/18 04:07:16;;;;;;;8.50;4.07;;;21.20;84.00;;;;;;5039414;28;20656;-81
2023/09/18 04:09:42;;;;;;;7.47;3.83;;;21.20;87.70;;;;;;5038557;28;20534;-82
2023/09/18 04:12:09;;;;;;;9.93;4.17;;;21.10;90.80;;;;;;5035500;28;20184;-80
2023/09/18 04:14:35;;;;;;;6.17;3.90;;;21.10;90.90;;;;;;5037062;28;20296;-82
2023/09/18 04:17:02;;;;;;;5.63;3.67;;;21.10;91.80;;;;;;5042709;28;20216;-80
2023/09/18 04:19:28;;;;;;;5.97;3.43;;;21.00;91.90;;;;;;5036314;28;20191;-81
2023/09/18 04:21:53;;;;;;;7.70;3.20;;;20.90;91.70;;;;;;5042877;28;20175;-81
2023/09/18 04:24:19;;;;;;;6.93;3.60;;;20.90;91.50;;;;;;5055007;28;20169;-80
2023/09/18 04:26:45;;;;;;;5.20;2.93;;;20.90;91.70;;;;;;5038488;28;20714;-82
2023/09/18 04:29:10;;;;;;;4.80;3.10;;;20.90;91.60;;;;;;5040274;28;20179;-80
2023/09/18 04:31:37;;;;;;;5.67;2.77;;;20.90;90.90;;;;;;5039021;28;20230;-83
2023/09/18 04:34:03;;;;;;;6.53;2.20;;;20.90;89.00;;;;;;5040012;28;20202;-81
2023/09/18 04:36:30;;;;;;;4.27;2.37;;;20.80;86.30;;;;;;5055591;28;20160;-81
2023/09/18 04:38:55;;;;;;;5.00;1.70;;;20.80;82.90;;;;;;5036067;28;20190;-82
2023/09/18 04:41:22;;;;;;;3.63;1.90;;;20.70;82.60;;;;;;5039627;28;20204;-79
2023/09/18 04:43:48;;;;;;;7.80;2.10;;;20.70;82.20;;;;;;5045112;28;20201;-80
2023/09/18 04:46:14;;;;;;;3.17;1.77;;;20.70;82.50;;;;;;5038997;28;20177;-80
2023/09/18 04:48:39;;;;;;;3.63;1.70;;;20.60;82.60;;;;;;5039095;28;20176;-81
2023/09/18 04:51:05;;;;;;;3.50;1.70;;;20.60;81.60;;;;;;5043744;28;20177;-79
2023/09/18 04:53:32;;;;;;;2.90;1.67;;;20.60;81.90;;;;;;5053996;28;20193;-79
2023/09/18 04:55:58;;;;;;;3.70;1.83;;;20.50;83.00;;;;;;5042727;28;20208;-82
2023/09/18 04:58:24;;;;;;;4.63;1.90;;;20.50;84.60;;;;;;5045196;28;20176;-82
2023/09/18 05:00:57;;;;;;;6.60;2.10;;;20.50;84.20;;;;;;5048481;28;20170;-82
2023/09/18 05:03:23;;;;;;;4.97;1.93;;;20.40;81.20;;;;;;5039341;28;20178;-81
2023/09/18 05:05:49;;;;;;;3.23;1.70;;;20.40;82.50;;;;;;5046322;28;20241;-82
2023/09/18 05:08:15;;;;;;;3.50;1.80;;;20.40;83.10;;;;;;5042882;28;20545;-81
2023/09/18 05:10:41;;;;;;;4.83;1.70;;;20.40;83.70;;;;;;5045586;28;20217;-81
2023/09/18 05:13:07;;;;;;;2.97;1.90;;;20.40;83.30;;;;;;5034303;28;20204;-81
2023/09/18 05:15:33;;;;;;;4.40;1.97;;;20.30;85.50;;;;;;5043685;28;20209;-80
2023/09/18 05:17:59;;;;;;;4.37;1.90;;;20.30;85.90;;;;;;5035137;28;20176;-81
2023/09/18 05:20:30;;;;;;;3.20;2.00;;;20.30;88.10;;;;;;5033935;28;20180;-80
2023/09/18 05:22:57;;;;;;;7.20;2.00;;;20.30;87.80;;;;;;5035050;28;20185;-83
2023/09/18 05:25:28;;;;;;;2.63;1.97;;;20.20;89.80;;;;;;5033655;28;20195;-82
2023/09/18 05:27:57;;;;;;;4.33;2.10;;;20.10;90.80;;;;;;5034037;28;20176;-81
2023/09/18 05:30:30;;;;;;;3.27;1.87;;;20.20;91.70;;;;;;5027303;28;20190;-83
2023/09/18 05:32:57;;;;;;;4.60;2.00;;;20.20;92.20;;;;;;5028529;28;20187;-80
2023/09/18 05:35:23;;;;;;;6.40;1.93;;;20.10;92.10;;;;;;5035214;28;20231;-83
2023/09/18 05:37:50;;;;;;;5.40;2.30;;;20.20;90.90;;;;;;5016762;28;20241;-81
2023/09/18 05:40:17;;;;;;;6.07;2.13;;;20.20;90.50;;;;;;5015545;28;20786;-82
2023/09/18 05:42:44;;;;;;;4.27;2.10;;;20.10;91.60;;;;;;5015550;28;20209;-83
2023/09/18 05:45:14;;;;;;;5.60;2.07;;;20.10;91.90;;;;;;5016052;28;20265;-85
2023/09/18 05:47:42;;;;;;;5.80;2.03;;;20.10;92.00;;;;;;5015298;28;20173;-83
2023/09/18 05:50:09;;;;;;;3.37;2.00;;;20.10;91.00;;;;;;5015772;28;20239;-82
2023/09/18 05:52:36;;;;;;;4.37;2.20;;;20.10;90.50;;;;;;5017074;28;20185;-84
2023/09/18 05:55:04;;;;;;;5.87;2.53;;;20.00;91.10;;;;;;5014096;28;20211;-83
2023/09/18 05:57:29;;;;;;;7.77;2.40;;;20.00;90.20;;;;;;5031406;28;20260;-84
2023/09/18 05:59:56;;;;;;;4.53;2.20;;;20.10;89.20;;;;;;5019377;28;20200;-84
2023/09/18 06:02:22;;;;;;;4.27;2.33;;;20.10;87.50;;;;;;5019663;28;20177;-83
2023/09/18 06:04:48;;;;;;;6.77;2.23;;;20.00;88.60;;;;;;5019503;28;20177;-83
2023/09/18 06:07:14;;;;;;;5.17;2.20;;;20.00;89.30;;;;;;5037433;28;20191;-83
2023/09/18 06:09:41;;;;;;;4.83;2.60;;;20.00;89.20;;;;;;5051480;28;20224;-80
2023/09/18 06:12:07;;;;;;;6.77;2.37;;;20.00;89.30;;;;;;5023298;28;20239;-82
2023/09/18 06:14:37;;;;;;;7.20;2.60;;;20.00;90.10;;;;;;5024540;28;20203;-83
2023/09/18 06:17:06;;;;;;;7.03;2.90;;;20.00;90.10;;;;;;5023294;28;20260;-83
2023/09/18 06:19:33;;;;;;;4.43;2.60;;;20.00;89.00;;;;;;5041166;28;20161;-83
2023/09/18 06:21:59;;;;;;;5.30;2.50;;;20.00;90.00;;;;;;5034974;28;20466;-84
2023/09/18 06:24:25;;;;;;;6.70;2.30;;;20.00;87.60;;;;;;5042334;28;20189;-83
2023/09/18 06:26:51;;;;;;;5.83;2.73;;;20.00;90.40;;;;;;5046529;28;20258;-84
2023/09/18 06:29:16;;;;;;;5.10;2.37;;;20.00;89.60;;;;;;5023796;28;20654;-83
2023/09/18 06:31:42;;;;;;;4.70;2.33;;;20.00;88.40;;;;;;5033532;28;20535;-83
2023/09/18 06:34:09;;;;;;;8.20;2.50;;;20.00;86.50;;;;;;5034438;28;20208;-81
2023/09/18 06:36:34;;;;;;;6.73;2.57;;;20.00;85.00;;;;;;5027676;28;20177;-84
2023/09/18 06:39:00;;;;;;;6.07;2.50;;;20.10;83.80;;;;;;5030232;28;20196;-83
2023/09/18 06:41:32;;;;;;;6.07;2.83;;;19.90;85.20;;;;;;5050155;28;20172;-83
2023/09/18 06:43:58;;;;;;;5.23;2.53;;;19.90;89.40;;;;;;5052386;28;20286;-83
2023/09/18 06:46:24;;;;;;;6.27;2.70;;;19.90;87.20;;;;;;5038901;28;20184;-84
2023/09/18 06:48:56;;;;;;;5.73;3.03;;;19.90;90.00;;;;;;5040812;28;20176;-84
2023/09/18 06:51:23;;;;;;;6.10;2.83;;;19.90;89.80;;;;;;5035699;28;20601;-83
2023/09/18 06:53:49;;;;;;;5.37;2.80;;;19.80;90.90;;;;;;5038200;28;20204;-83
2023/09/18 06:56:15;;;;;;;6.43;3.10;;;19.80;91.60;;;;;;5040477;28;20193;-83
2023/09/18 06:58:41;;;;;;;4.20;2.73;;;19.90;92.20;;;;;;5036341;28;20185;-85
2023/09/18 07:01:10;;;;;;;4.97;2.70;;;20.00;87.70;;;;;;5038445;28;20206;-84
2023/09/18 07:03:36;;;;;;;5.50;2.90;;;19.90;90.70;;;;;;5038806;28;20180;-84
2023/09/18 07:06:04;;;;;;;6.37;2.80;;;19.80;90.50;;;;;;5038411;28;20173;-83
2023/09/18 07:08:30;;;;;;;6.97;3.00;;;19.80;91.50;;;;;;5040657;28;20169;-83
2023/09/18 07:10:57;;;;;;;4.90;2.80;;;19.90;92.30;;;;;;5037205;28;20209;-84
2023/09/18 07:13:22;;;;;;;6.43;3.23;;;19.90;90.90;;;;;;5039770;28;20185;-83
2023/09/18 07:15:50;;;;;;;5.60;3.17;;;19.90;89.80;;;;;;5043959;28;20214;-84
2023/09/18 07:18:16;;;;;;;5.77;3.20;;;19.90;89.30;;;;;;5044772;28;20162;-84
2023/09/18 07:20:43;;;;;;;6.07;2.83;;;20.00;88.40;;;;;;5045958;28;20185;-82
2023/09/18 07:23:09;;;;;;;5.90;3.10;;;20.00;87.40;;;;;;5046430;28;20174;-84
2023/09/18 07:25:38;;;;;;;6.37;2.93;;;20.10;85.60;;;;;;5043845;28;20181;-84
2023/09/18 07:28:08;;;;;;;8.43;3.07;;;20.00;84.30;;;;;;5043782;28;20612;-84
2023/09/18 07:30:35;;;;;;;8.10;3.33;;;20.10;84.40;;;;;;5046162;28;20257;-83
2023/09/18 07:33:02;;;;;;;6.20;3.47;;;20.00;79.80;;;;;;5046271;28;20184;-84
2023/09/18 07:35:30;;;;;;;5.70;2.90;;;20.10;81.90;;;;;;5047983;28;20291;-82
2023/09/18 07:37:58;;;;;;;5.73;2.97;;;20.10;81.20;;;;;;5043513;28;20176;-84
2023/09/18 07:40:24;;;;;;;6.40;2.67;;;20.20;76.10;;;;;;5048292;28;20278;-83
2023/09/18 07:42:50;;;;;;;10.07;3.23;;;20.30;72.00;;;;;;5042084;28;20169;-84
2023/09/18 07:45:18;;;;;;;7.10;2.90;;;20.30;68.20;;;;;;5037424;28;20188;-83
2023/09/18 07:47:44;;;;;;;6.93;2.80;;;20.40;63.90;;;;;;5039432;28;20707;-85
2023/09/18 07:50:13;;;;;;;8.03;2.80;;;20.50;60.80;;;;;;5038177;28;20170;-86
2023/09/18 07:52:39;;;;;;;5.73;2.93;;;20.50;55.90;;;;;;5038245;28;20174;-85
2023/09/18 07:55:06;;;;;;;5.77;2.30;;;20.60;52.80;;;;;;5036576;28;20215;-83
2023/09/18 07:57:34;;;;;;;7.33;3.20;;;20.60;50.30;;;;;;5036091;28;20180;-85
2023/09/18 08:00:11;;;;;;;6.97;2.80;;;20.70;47.30;;;;;;5036196;28;20165;-82
2023/09/18 08:02:37;;;;;;;5.50;2.63;;;20.80;44.60;;;;;;5036842;28;20257;-81
2023/09/18 08:05:04;;;;;;;8.10;3.13;;;20.90;40.90;;;;;;5036199;28;20235;-83
2023/09/18 08:07:35;;;;;;;9.07;3.00;;;20.90;38.70;;;;;;5037646;28;20571;-83
2023/09/18 08:10:00;;;;;;;7.23;3.20;;;20.90;41.90;;;;;;5036468;28;20254;-81
2023/09/18 08:12:26;;;;;;;6.77;2.97;;;20.90;43.20;;;;;;5038496;28;20197;-83
2023/09/18 08:14:52;;;;;;;6.80;2.97;;;20.90;44.00;;;;;;5038091;28;20208;-82
2023/09/18 08:17:19;;;;;;;9.17;3.50;;;20.90;39.00;;;;;;5040751;28;20537;-82
2023/09/18 08:19:45;;;;;;;6.47;3.47;;;20.90;40.40;;;;;;5037321;28;20169;-82
2023/09/18 08:22:15;;;;;;;12.00;3.97;;;20.90;38.30;;;;;;5036952;28;20526;-83
2023/09/18 08:24:41;;;;;;;6.43;4.27;;;20.90;39.20;;;;;;5036120;28;20560;-86
2023/09/18 08:27:07;;;;;;;7.90;3.97;;;20.90;38.60;;;;;;5037936;28;20228;-86
2023/09/18 08:29:34;;;;;;;8.30;4.43;;;20.80;40.80;;;;;;5037265;28;20174;-84
2023/09/18 08:32:00;;;;;;;6.93;3.90;;;20.80;42.60;;;;;;5035459;28;20261;-84
2023/09/18 08:34:26;;;;;;;6.83;4.43;;;20.80;42.30;;;;;;5036711;28;20708;-84
2023/09/18 08:36:52;;;;;;;7.50;5.00;;;20.70;43.60;;;;;;5035560;28;20660;-85
2023/09/18 08:39:17;;;;;;;12.17;5.40;;;20.70;46.80;;;;;;5035148;28;20254;-84
2023/09/18 08:41:49;;;;;;;7.40;5.23;;;20.70;46.30;;;;;;5036829;28;20196;-86
2023/09/18 08:44:17;;;;;;;9.80;5.50;;;20.60;45.20;;;;;;5037704;28;20187;-84
2023/09/18 08:46:43;;;;;;;7.77;4.73;;;20.80;46.10;;;;;;5036743;28;20300;-82
2023/09/18 08:49:11;;;;;;;6.63;4.43;;;20.80;44.10;;;;;;5036392;28;20181;-83
2023/09/18 08:51:37;;;;;;;6.70;4.07;;;20.90;39.00;;;;;;5041124;28;20186;-82
2023/09/18 08:54:05;;;;;;;8.50;4.40;;;21.00;37.90;;;;;;5039520;28;20212;-83
2023/09/18 08:56:33;;;;;;;9.83;4.50;;;21.10;34.40;;;;;;5042159;28;20241;-84
2023/09/18 08:58:59;;;;;;;8.70;4.23;;;21.10;30.60;;;;;;5044577;28;20243;-85
2023/09/18 09:01:25;;;;;;;8.43;3.67;;;21.00;31.80;;;;;;5041426;28;20181;-82
2023/09/18 09:03:52;;;;;;;6.53;3.63;;;20.90;33.40;;;;;;5044852;28;20178;-82
2023/09/18 09:06:19;;;;;;;5.33;3.63;;;20.90;31.20;;;;;;5046453;28;20193;-83
2023/09/18 09:08:45;;;;;;;4.80;3.13;;;21.00;30.30;;;;;;5048688;28;20164;-84
2023/09/18 09:11:11;;;;;;;7.23;3.53;;;21.00;30.60;;;;;;5051481;28;20260;-82
2023/09/18 09:13:37;;;;;;;7.73;3.37;;;20.90;30.10;;;;;;5050781;28;20178;-83
2023/09/18 09:16:03;;;;;;;8.93;3.67;;;20.80;36.20;;;;;;5046641;28;20228;-83
2023/09/18 09:18:31;;;;;;;6.33;3.67;;;20.70;38.70;;;;;;5045907;28;20170;-84
2023/09/18 09:21:00;;;;;;;8.50;3.50;;;20.80;39.70;;;;;;5043830;28;20208;-85
2023/09/18 09:23:27;;;;;;;6.73;3.43;;;20.80;38.30;;;;;;5036482;28;20185;-83
2023/09/18 09:25:54;;;;;;;6.47;3.73;;;20.70;41.50;;;;;;5035579;28;20169;-84
2023/09/18 09:28:30;;;;;;;5.37;3.50;;;20.80;40.90;;;;;;5035562;28;20198;-83
2023/09/18 09:31:05;;;;;;;7.60;3.60;;;20.80;37.80;;;;;;5050049;28;20205;-82
2023/09/18 09:33:32;;;;;;;5.80;3.60;;;20.80;37.50;;;;;;5056482;28;20180;-85
2023/09/18 09:35:58;;;;;;;9.27;3.33;;;20.80;38.00;;;;;;5044381;28;20226;-82
2023/09/18 09:38:32;;;;;;;9.13;3.77;;;20.70;42.80;;;;;;5043044;28;20181;-85
2023/09/18 09:41:01;;;;;;;6.00;3.50;;;20.80;44.10;;;;;;5040088;28;20319;-84
2023/09/18 09:43:30;;;;;;;8.83;4.10;;;20.80;41.20;;;;;;5039720;28;20173;-85
2023/09/18 09:46:00;;;;;;;11.40;4.17;;;20.80;38.10;;;;;;5041256;28;20170;-83
2023/09/18 09:48:30;;;;;;;8.03;4.00;;;20.80;38.10;;;;;;5039949;28;20615;-83
2023/09/18 09:50:59;;;;;;;7.23;4.30;;;20.80;40.60;;;;;;5040749;28;20260;-84
2023/09/18 09:53:47;;;;;;;8.10;4.20;;;20.80;40.20;;;;;;5049802;28;20192;-81
2023/09/18 09:56:13;;;;;;;12.87;4.10;;;20.80;42.60;;;;;;5060295;28;20727;-84
2023/09/18 09:58:43;;;;;;;10.17;4.30;;;20.80;39.80;;;;;;5052052;28;20208;-83
2023/09/18 10:01:17;;;;;;;7.03;4.27;;;20.70;38.90;;;;;;5043726;28;20203;-84
2023/09/18 10:03:47;;;;;;;5.13;3.80;;;20.80;37.50;;;;;;5037967;28;20173;-84
2023/09/18 10:06:19;;;;;;;7.47;4.17;;;20.80;35.50;;;;;;5039572;28;20169;-84
2023/09/18 10:08:46;;;;;;;9.87;4.13;;;20.80;37.50;;;;;;5039301;28;20174;-83
2023/09/18 10:11:16;;;;;;;7.70;4.10;;;20.80;40.00;;;;;;5053099;28;20201;-80
2023/09/18 10:13:55;;;;;;;8.07;3.77;;;20.80;36.20;;;;;;5054098;28;20184;-84
2023/09/18 10:16:26;;;;;;;7.53;4.40;;;20.90;31.60;;;;;;5048131;28;20189;-83
2023/09/18 10:19:01;;;;;;;5.13;3.50;;;20.90;31.70;;;;;;5050687;28;20173;-82
2023/09/18 10:21:41;;;;;;;6.57;4.10;;;20.90;30.00;;;;;;5053456;28;20200;-83
2023/09/18 10:24:19;;;;;;;6.43;3.87;;;20.80;28.30;;;;;;5050547;28;20192;-83
2023/09/18 10:26:58;;;;;;;6.57;4.23;;;20.70;32.00;;;;;;5041646;28;20201;-83
2023/09/18 10:29:30;;;;;;;6.57;3.80;;;20.70;33.60;;;;;;5041898;28;20176;-82
2023/09/18 10:31:56;;;;;;;7.27;4.27;;;20.70;32.80;;;;;;5043486;28;20180;-84
2023/09/18 10:34:23;;;;;;;7.10;3.90;;;20.70;27.50;;;;;;5047773;28;20216;-83
2023/09/18 10:36:51;;;;;;;6.03;3.73;;;20.60;29.80;;;;;;5046632;28;20177;-83
2023/09/18 10:39:23;;;;;;;6.43;4.23;;;20.50;33.60;;;;;;5049295;28;20227;-83
2023/09/18 10:41:54;;;;;;;8.90;4.33;;;20.50;35.00;;;;;;5044905;28;20181;-83
2023/09/18 10:44:23;;;;;;;7.90;4.23;;;20.50;35.00;;;;;;5046094;28;20169;-84
2023/09/18 10:46:54;;;;;;;7.23;3.70;;;20.50;32.80;;;;;;5042815;28;20184;-84
2023/09/18 10:49:20;;;;;;;8.20;4.10;;;20.60;29.70;;;;;;5044944;28;20197;-84
2023/09/18 10:51:47;;;;;;;9.27;4.33;;;20.80;25.90;;;;;;5043104;28;20181;-83
2023/09/18 10:54:21;;;;;;;7.60;3.90;;;20.80;22.10;;;;;;5048201;28;20763;-82
2023/09/18 10:56:47;;;;;;;8.20;3.50;;;20.90;19.00;;;;;;5056289;28;20181;-82
2023/09/18 10:59:14;;;;;;;5.33;4.23;;;21.00;18.30;;;;;;5054897;28;20197;-83
2023/09/18 11:01:40;;;;;;;4.40;3.30;;;21.30;10.80;;;;;;5048224;28;20182;-82
2023/09/18 11:04:09;;;;;;;7.30;3.53;;;21.50;1.00;;;;;;5046373;28;20170;-84
2023/09/18 11:06:56;;;;;;;7.53;3.77;;;21.70;1.00;;;;;;5040992;28;20202;-82
2023/09/18 11:09:27;;;;;;;8.93;3.50;;;22.00;1.00;;;;;;5044996;28;20181;-84
2023/09/18 11:11:57;;;;;;;4.67;3.07;;;22.10;1.00;;;;;;5046957;28;20183;-82
2023/09/18 11:14:41;;;;;;;5.07;3.00;;;22.20;1.00;;;;;;5048578;28;20677;-81
2023/09/18 11:17:27;;;;;;;7.03;3.20;;;22.20;1.00;;;;;;5042976;28;20525;-81
2023/09/18 11:20:23;;;;;;;6.27;3.00;;;22.30;1.00;;;;;;5045611;28;20228;-83
2023/09/18 11:23:14;;;;;;;6.00;2.63;;;22.30;1.00;;;;;;5044230;28;20285;-83
2023/09/18 11:25:51;;;;;;;7.47;2.93;;;22.50;1.00;;;;;;5040519;28;20175;-82
2023/09/18 11:28:24;;;;;;;4.73;2.90;;;22.40;1.00;;;;;;5043430;28;20537;-82
2023/09/18 11:30:57;;;;;;;5.93;3.40;;;22.30;1.00;;;;;;5044142;28;20198;-84
2023/09/18 11:33:40;;;;;;;6.60;3.17;;;22.20;1.00;;;;;;5043932;28;20186;-84
2023/09/18 11:36:14;;;;;;;7.30;3.37;;;22.10;1.00;;;;;;5039294;28;20239;-84
2023/09/18 11:39:04;;;;;;;7.20;3.23;;;22.00;1.00;;;;;;5041988;28;20546;-83
2023/09/18 11:41:38;;;;;;;7.60;3.40;;;22.00;1.00;;;;;;5038836;28;20626;-82
2023/09/18 11:44:19;;;;;;;6.77;3.23;;;22.10;1.00;;;;;;5038214;28;20170;-82
2023/09/18 11:46:51;;;;;;;5.43;3.00;;;22.20;1.00;;;;;;5038590;28;20184;-84
2023/09/18 11:49:22;;;;;;;6.80;2.90;;;22.30;1.00;;;;;;5039542;28;20201;-83
2023/09/18 11:51:49;;;;;;;6.17;3.23;;;22.50;1.00;;;;;;5040277;28;20220;-83
2023/09/18 11:54:16;;;;;;;5.27;3.13;;;22.50;1.00;;;;;;5038738;28;20253;-83
2023/09/18 11:56:43;;;;;;;9.23;3.30;;;22.50;1.00;;;;;;5042339;28;20179;-84
2023/09/18 11:59:10;;;;;;;6.33;3.60;;;22.60;1.00;;;;;;5039110;28;20658;-84
2023/09/18 12:01:40;;;;;;;7.03;2.90;;;22.70;1.00;;;;;;5038865;28;20171;-83
2023/09/18 12:04:08;;;;;;;8.07;3.00;;;22.90;1.00;;;;;;5039144;28;20327;-84
2023/09/18 12:06:35;;;;;;;6.07;3.00;;;23.00;1.00;;;;;;5040406;28;20187;-83
2023/09/18 12:09:03;;;;;;;5.57;2.73;;;23.20;1.00;;;;;;5039815;28;20169;-83
2023/09/18 12:11:29;;;;;;;5.17;2.80;;;23.50;1.00;;;;;;5040585;28;20211;-83
2023/09/18 12:13:55;;;;;;;4.60;2.67;;;23.40;1.00;;;;;;5040122;28;20185;-85
2023/09/18 12:16:21;;;;;;;4.93;2.80;;;23.30;1.00;;;;;;5043847;28;20170;-84
2023/09/18 12:18:50;;;;;;;4.90;2.33;;;23.30;1.00;;;;;;5041461;28;20312;-84
2023/09/18 12:21:20;;;;;;;6.77;3.00;;;23.40;1.00;;;;;;5039311;28;20192;-84
2023/09/18 12:23:48;;;;;;;4.73;2.83;;;23.60;1.00;;;;;;5040774;28;20181;-82
2023/09/18 12:26:15;;;;;;;4.20;2.23;;;23.70;1.00;;;;;;5040347;28;20234;-84
2023/09/18 12:28:45;;;;;;;5.67;2.67;;;23.80;1.00;;;;;;5039402;28;20193;-83
2023/09/18 12:31:15;;;;;;;4.77;2.63;;;23.80;1.00;;;;;;5039800;28;20264;-86
2023/09/18 12:33:43;;;;;;;6.83;2.30;;;24.10;1.00;;;;;;5037630;28;20181;-83
2023/09/18 12:36:10;;;;;;;3.17;2.33;;;24.10;99.90;;;;;;5041870;28;20212;-84
2023/09/18 12:38:37;;;;;;;4.93;2.30;;;24.00;99.90;;;;;;5039059;28;20169;-84
2023/09/18 12:41:07;;;;;;;6.80;2.70;;;24.00;99.90;;;;;;5041423;28;20656;-83
2023/09/18 12:43:43;;;;;;;5.13;2.23;;;24.00;99.90;;;;;;5039773;28;20229;-82
2023/09/18 12:46:09;;;;;;;5.93;2.40;;;24.00;99.90;;;;;;5042469;28;20165;-84
2023/09/18 12:48:45;;;;;;;8.57;2.20;;;24.00;99.90;;;;;;5047367;28;20169;-82
2023/09/18 12:51:11;;;;;;;5.57;2.30;;;24.00;99.90;;;;;;5049312;28;20196;-83
2023/09/18 12:53:40;;;;;;;7.67;2.23;;;24.00;99.90;;;;;;5057385;28;20189;-83